sensor_id;sensor_type;location;lat;lon;timestamp;P1;durP1;ratioP1;P2;durP2;ratioP2
24233;SDS011;12365;43.554;1.388;2022-12-07T00:01:08;50.85;;;23.48;;
24233;SDS011;12365;43.554;1.388;2022-12-07T00:03:36;59.28;;;27.25;;
24233;SDS011;12365;43.554;1.388;2022-12-07T00:06:03;40.80;;;20.73;;
24233;SDS011;12365;43.554;1.388;2022-12-07T00:08:30;45.67;;;22.98;;
24233;SDS011;12365;43.554;1.388;2022-12-07T00:11:00;40.58;;;20.88;;
24233;SDS011;12365;43.554;1.388;2022-12-07T00:13:30;35.28;;;17.30;;
24233;SDS011;12365;43.554;1.388;2022-12-07T00:15:55;43.05;;;21.75;;
24233;SDS011;12365;43.554;1.388;2022-12-07T00:18:24;37.60;;;20.50;;
24233;SDS011;12365;43.554;1.388;2022-12-07T00:20:49;38.28;;;19.30;;
24233;SDS011;12365;43.554;1.388;2022-12-07T00:23:15;34.00;;;18.60;;
24233;SDS011;12365;43.554;1.388;2022-12-07T00:25:40;33.65;;;17.98;;
24233;SDS011;12365;43.554;1.388;2022-12-07T00:28:05;37.63;;;20.00;;
24233;SDS011;12365;43.554;1.388;2022-12-07T00:30:32;35.95;;;19.90;;
24233;SDS011;12365;43.554;1.388;2022-12-07T00:32:58;29.65;;;16.85;;
24233;SDS011;12365;43.554;1.388;2022-12-07T00:35:23;29.95;;;17.50;;
24233;SDS011;12365;43.554;1.388;2022-12-07T00:37:48;28.40;;;16.75;;
24233;SDS011;12365;43.554;1.388;2022-12-07T00:40:14;28.95;;;16.08;;
24233;SDS011;12365;43.554;1.388;2022-12-07T00:42:39;32.88;;;16.80;;
24233;SDS011;12365;43.554;1.388;2022-12-07T00:45:05;30.35;;;16.58;;
24233;SDS011;12365;43.554;1.388;2022-12-07T00:47:31;28.10;;;15.75;;
24233;SDS011;12365;43.554;1.388;2022-12-07T00:49:56;26.00;;;16.00;;
24233;SDS011;12365;43.554;1.388;2022-12-07T00:52:21;27.63;;;15.90;;
24233;SDS011;12365;43.554;1.388;2022-12-07T00:54:47;26.67;;;16.52;;
24233;SDS011;12365;43.554;1.388;2022-12-07T00:57:12;29.50;;;16.65;;
24233;SDS011;12365;43.554;1.388;2022-12-07T00:59:38;33.47;;;16.83;;
24233;SDS011;12365;43.554;1.388;2022-12-07T01:02:03;26.27;;;15.57;;
24233;SDS011;12365;43.554;1.388;2022-12-07T01:04:28;26.10;;;15.43;;
24233;SDS011;12365;43.554;1.388;2022-12-07T01:06:54;24.52;;;15.80;;
24233;SDS011;12365;43.554;1.388;2022-12-07T01:09:20;28.98;;;16.92;;
24233;SDS011;12365;43.554;1.388;2022-12-07T01:11:45;28.15;;;16.50;;
24233;SDS011;12365;43.554;1.388;2022-12-07T01:14:10;27.08;;;16.13;;
24233;SDS011;12365;43.554;1.388;2022-12-07T01:16:36;24.15;;;15.30;;
24233;SDS011;12365;43.554;1.388;2022-12-07T01:19:03;26.58;;;16.27;;
24233;SDS011;12365;43.554;1.388;2022-12-07T01:21:30;27.42;;;16.38;;
24233;SDS011;12365;43.554;1.388;2022-12-07T01:24:03;29.48;;;15.75;;
24233;SDS011;12365;43.554;1.388;2022-12-07T01:26:29;25.80;;;15.95;;
24233;SDS011;12365;43.554;1.388;2022-12-07T01:28:55;28.77;;;17.05;;
24233;SDS011;12365;43.554;1.388;2022-12-07T01:31:21;29.02;;;17.60;;
24233;SDS011;12365;43.554;1.388;2022-12-07T01:33:52;27.58;;;17.77;;
24233;SDS011;12365;43.554;1.388;2022-12-07T01:38:59;26.95;;;17.25;;
24233;SDS011;12365;43.554;1.388;2022-12-07T01:41:28;30.65;;;18.42;;
24233;SDS011;12365;43.554;1.388;2022-12-07T01:44:15;33.38;;;17.83;;
24233;SDS011;12365;43.554;1.388;2022-12-07T01:49:35;31.10;;;19.23;;
24233;SDS011;12365;43.554;1.388;2022-12-07T01:54:53;30.48;;;17.95;;
24233;SDS011;12365;43.554;1.388;2022-12-07T01:57:21;29.10;;;17.88;;
24233;SDS011;12365;43.554;1.388;2022-12-07T01:59:48;29.70;;;18.67;;
24233;SDS011;12365;43.554;1.388;2022-12-07T02:02:38;35.00;;;18.77;;
24233;SDS011;12365;43.554;1.388;2022-12-07T02:05:09;32.72;;;18.42;;
24233;SDS011;12365;43.554;1.388;2022-12-07T02:07:35;32.97;;;19.00;;
24233;SDS011;12365;43.554;1.388;2022-12-07T02:10:22;35.58;;;19.33;;
24233;SDS011;12365;43.554;1.388;2022-12-07T02:12:52;31.83;;;19.83;;
24233;SDS011;12365;43.554;1.388;2022-12-07T02:15:20;29.48;;;18.27;;
24233;SDS011;12365;43.554;1.388;2022-12-07T02:17:56;33.58;;;19.10;;
24233;SDS011;12365;43.554;1.388;2022-12-07T02:20:39;31.55;;;19.15;;
24233;SDS011;12365;43.554;1.388;2022-12-07T02:29:20;33.75;;;18.80;;
24233;SDS011;12365;43.554;1.388;2022-12-07T02:31:55;33.30;;;19.50;;
24233;SDS011;12365;43.554;1.388;2022-12-07T02:36:55;31.02;;;18.88;;
24233;SDS011;12365;43.554;1.388;2022-12-07T02:40:09;30.00;;;19.58;;
24233;SDS011;12365;43.554;1.388;2022-12-07T02:42:28;33.88;;;19.10;;
24233;SDS011;12365;43.554;1.388;2022-12-07T02:45:00;31.52;;;19.13;;
24233;SDS011;12365;43.554;1.388;2022-12-07T02:47:26;30.92;;;18.75;;
24233;SDS011;12365;43.554;1.388;2022-12-07T02:49:54;32.15;;;18.67;;
24233;SDS011;12365;43.554;1.388;2022-12-07T02:52:20;32.78;;;19.55;;
24233;SDS011;12365;43.554;1.388;2022-12-07T02:54:45;36.33;;;20.33;;
24233;SDS011;12365;43.554;1.388;2022-12-07T03:02:42;35.80;;;21.58;;
24233;SDS011;12365;43.554;1.388;2022-12-07T03:10:17;35.95;;;21.38;;
24233;SDS011;12365;43.554;1.388;2022-12-07T03:13:09;36.92;;;22.27;;
24233;SDS011;12365;43.554;1.388;2022-12-07T03:19:00;36.35;;;22.17;;
24233;SDS011;12365;43.554;1.388;2022-12-07T03:21:36;42.60;;;22.20;;
24233;SDS011;12365;43.554;1.388;2022-12-07T03:24:07;37.03;;;22.70;;
24233;SDS011;12365;43.554;1.388;2022-12-07T03:26:38;40.35;;;22.45;;
24233;SDS011;12365;43.554;1.388;2022-12-07T03:29:12;38.65;;;23.55;;
24233;SDS011;12365;43.554;1.388;2022-12-07T03:31:45;35.38;;;21.88;;
24233;SDS011;12365;43.554;1.388;2022-12-07T03:34:28;37.78;;;22.60;;
24233;SDS011;12365;43.554;1.388;2022-12-07T03:37:00;40.13;;;22.33;;
24233;SDS011;12365;43.554;1.388;2022-12-07T03:39:33;38.65;;;22.33;;
24233;SDS011;12365;43.554;1.388;2022-12-07T03:42:19;38.22;;;21.88;;
24233;SDS011;12365;43.554;1.388;2022-12-07T03:44:45;36.28;;;21.75;;
24233;SDS011;12365;43.554;1.388;2022-12-07T03:49:59;36.95;;;22.17;;
24233;SDS011;12365;43.554;1.388;2022-12-07T03:52:33;36.40;;;22.30;;
24233;SDS011;12365;43.554;1.388;2022-12-07T03:57:52;36.33;;;21.77;;
24233;SDS011;12365;43.554;1.388;2022-12-07T04:00:21;37.35;;;21.90;;
24233;SDS011;12365;43.554;1.388;2022-12-07T04:02:47;40.20;;;21.80;;
24233;SDS011;12365;43.554;1.388;2022-12-07T04:05:12;37.47;;;22.10;;
24233;SDS011;12365;43.554;1.388;2022-12-07T04:07:38;36.03;;;21.98;;
24233;SDS011;12365;43.554;1.388;2022-12-07T04:10:03;34.45;;;20.98;;
24233;SDS011;12365;43.554;1.388;2022-12-07T04:12:29;33.47;;;21.08;;
24233;SDS011;12365;43.554;1.388;2022-12-07T04:14:55;35.15;;;20.92;;
24233;SDS011;12365;43.554;1.388;2022-12-07T04:17:20;32.20;;;20.15;;
24233;SDS011;12365;43.554;1.388;2022-12-07T04:19:46;37.25;;;21.08;;
24233;SDS011;12365;43.554;1.388;2022-12-07T04:22:11;31.88;;;20.33;;
24233;SDS011;12365;43.554;1.388;2022-12-07T04:24:36;34.83;;;20.80;;
24233;SDS011;12365;43.554;1.388;2022-12-07T04:27:02;35.53;;;21.35;;
24233;SDS011;12365;43.554;1.388;2022-12-07T04:29:27;32.95;;;20.60;;
24233;SDS011;12365;43.554;1.388;2022-12-07T04:31:53;31.77;;;20.08;;
24233;SDS011;12365;43.554;1.388;2022-12-07T04:34:19;36.03;;;20.45;;
24233;SDS011;12365;43.554;1.388;2022-12-07T04:36:45;34.20;;;19.70;;
24233;SDS011;12365;43.554;1.388;2022-12-07T04:39:19;32.97;;;20.65;;
24233;SDS011;12365;43.554;1.388;2022-12-07T04:41:52;32.53;;;19.48;;
24233;SDS011;12365;43.554;1.388;2022-12-07T04:44:19;32.10;;;20.00;;
24233;SDS011;12365;43.554;1.388;2022-12-07T04:46:45;33.38;;;20.52;;
24233;SDS011;12365;43.554;1.388;2022-12-07T04:49:11;33.15;;;20.70;;
24233;SDS011;12365;43.554;1.388;2022-12-07T04:51:38;30.05;;;20.02;;
24233;SDS011;12365;43.554;1.388;2022-12-07T04:54:04;34.42;;;20.90;;
24233;SDS011;12365;43.554;1.388;2022-12-07T04:56:30;34.40;;;19.77;;
24233;SDS011;12365;43.554;1.388;2022-12-07T04:58:56;31.70;;;19.58;;
24233;SDS011;12365;43.554;1.388;2022-12-07T05:01:22;34.30;;;21.13;;
24233;SDS011;12365;43.554;1.388;2022-12-07T05:03:48;37.03;;;21.02;;
24233;SDS011;12365;43.554;1.388;2022-12-07T05:06:14;30.88;;;20.38;;
24233;SDS011;12365;43.554;1.388;2022-12-07T05:08:40;33.08;;;20.58;;
24233;SDS011;12365;43.554;1.388;2022-12-07T05:11:07;29.98;;;20.02;;
24233;SDS011;12365;43.554;1.388;2022-12-07T05:13:33;34.30;;;20.13;;
24233;SDS011;12365;43.554;1.388;2022-12-07T05:15:58;29.77;;;19.17;;
24233;SDS011;12365;43.554;1.388;2022-12-07T05:18:24;33.20;;;20.58;;
24233;SDS011;12365;43.554;1.388;2022-12-07T05:20:50;31.65;;;19.98;;
24233;SDS011;12365;43.554;1.388;2022-12-07T05:23:16;32.55;;;19.25;;
24233;SDS011;12365;43.554;1.388;2022-12-07T05:25:42;36.15;;;20.25;;
24233;SDS011;12365;43.554;1.388;2022-12-07T05:28:07;32.92;;;20.27;;
24233;SDS011;12365;43.554;1.388;2022-12-07T05:30:33;32.38;;;20.27;;
24233;SDS011;12365;43.554;1.388;2022-12-07T05:32:59;36.58;;;19.90;;
24233;SDS011;12365;43.554;1.388;2022-12-07T05:35:24;32.33;;;19.92;;
24233;SDS011;12365;43.554;1.388;2022-12-07T05:37:50;33.60;;;19.48;;
24233;SDS011;12365;43.554;1.388;2022-12-07T05:40:15;32.10;;;19.15;;
24233;SDS011;12365;43.554;1.388;2022-12-07T05:42:41;32.03;;;19.17;;
24233;SDS011;12365;43.554;1.388;2022-12-07T05:45:07;30.25;;;19.17;;
24233;SDS011;12365;43.554;1.388;2022-12-07T05:47:34;34.17;;;18.92;;
24233;SDS011;12365;43.554;1.388;2022-12-07T05:50:00;33.63;;;20.02;;
24233;SDS011;12365;43.554;1.388;2022-12-07T05:52:25;32.38;;;19.25;;
24233;SDS011;12365;43.554;1.388;2022-12-07T05:54:51;31.73;;;18.25;;
24233;SDS011;12365;43.554;1.388;2022-12-07T05:57:16;31.08;;;18.77;;
24233;SDS011;12365;43.554;1.388;2022-12-07T05:59:42;33.08;;;18.27;;
24233;SDS011;12365;43.554;1.388;2022-12-07T06:02:09;34.00;;;19.45;;
24233;SDS011;12365;43.554;1.388;2022-12-07T06:04:37;27.77;;;18.38;;
24233;SDS011;12365;43.554;1.388;2022-12-07T06:07:05;35.70;;;20.13;;
24233;SDS011;12365;43.554;1.388;2022-12-07T06:09:31;29.17;;;18.83;;
24233;SDS011;12365;43.554;1.388;2022-12-07T06:11:57;31.95;;;19.52;;
24233;SDS011;12365;43.554;1.388;2022-12-07T06:14:42;32.45;;;19.00;;
24233;SDS011;12365;43.554;1.388;2022-12-07T06:17:08;32.80;;;19.67;;
24233;SDS011;12365;43.554;1.388;2022-12-07T06:19:34;32.20;;;19.38;;
24233;SDS011;12365;43.554;1.388;2022-12-07T06:22:00;30.23;;;18.75;;
24233;SDS011;12365;43.554;1.388;2022-12-07T06:24:26;26.17;;;18.27;;
24233;SDS011;12365;43.554;1.388;2022-12-07T06:26:51;32.38;;;18.98;;
24233;SDS011;12365;43.554;1.388;2022-12-07T06:29:17;30.67;;;18.25;;
24233;SDS011;12365;43.554;1.388;2022-12-07T06:31:42;44.75;;;18.95;;
24233;SDS011;12365;43.554;1.388;2022-12-07T06:34:18;31.38;;;17.98;;
24233;SDS011;12365;43.554;1.388;2022-12-07T06:36:44;32.70;;;19.13;;
24233;SDS011;12365;43.554;1.388;2022-12-07T06:39:12;29.17;;;18.38;;
24233;SDS011;12365;43.554;1.388;2022-12-07T06:41:38;28.42;;;18.55;;
24233;SDS011;12365;43.554;1.388;2022-12-07T06:44:04;33.35;;;19.88;;
24233;SDS011;12365;43.554;1.388;2022-12-07T06:46:31;27.58;;;18.48;;
24233;SDS011;12365;43.554;1.388;2022-12-07T06:48:56;31.77;;;20.27;;
24233;SDS011;12365;43.554;1.388;2022-12-07T06:51:22;35.70;;;21.00;;
24233;SDS011;12365;43.554;1.388;2022-12-07T06:53:47;34.63;;;19.15;;
24233;SDS011;12365;43.554;1.388;2022-12-07T06:56:13;31.45;;;19.38;;
24233;SDS011;12365;43.554;1.388;2022-12-07T06:58:39;34.80;;;20.88;;
24233;SDS011;12365;43.554;1.388;2022-12-07T07:01:15;35.97;;;21.13;;
24233;SDS011;12365;43.554;1.388;2022-12-07T07:03:42;33.15;;;20.20;;
24233;SDS011;12365;43.554;1.388;2022-12-07T07:06:09;36.88;;;21.17;;
24233;SDS011;12365;43.554;1.388;2022-12-07T07:08:35;39.40;;;22.70;;
24233;SDS011;12365;43.554;1.388;2022-12-07T07:11:01;38.08;;;21.15;;
24233;SDS011;12365;43.554;1.388;2022-12-07T07:13:27;35.75;;;20.25;;
24233;SDS011;12365;43.554;1.388;2022-12-07T07:15:53;42.75;;;21.02;;
24233;SDS011;12365;43.554;1.388;2022-12-07T07:18:18;39.95;;;20.75;;
24233;SDS011;12365;43.554;1.388;2022-12-07T07:20:44;36.70;;;20.92;;
24233;SDS011;12365;43.554;1.388;2022-12-07T07:23:09;37.92;;;20.80;;
24233;SDS011;12365;43.554;1.388;2022-12-07T07:25:34;33.80;;;20.20;;
24233;SDS011;12365;43.554;1.388;2022-12-07T07:28:00;37.03;;;21.08;;
24233;SDS011;12365;43.554;1.388;2022-12-07T07:30:26;34.08;;;21.00;;
24233;SDS011;12365;43.554;1.388;2022-12-07T07:32:55;32.10;;;20.65;;
24233;SDS011;12365;43.554;1.388;2022-12-07T07:35:25;47.85;;;21.27;;
24233;SDS011;12365;43.554;1.388;2022-12-07T07:37:51;36.85;;;21.38;;
24233;SDS011;12365;43.554;1.388;2022-12-07T07:40:16;46.63;;;21.20;;
24233;SDS011;12365;43.554;1.388;2022-12-07T07:42:42;37.65;;;21.77;;
24233;SDS011;12365;43.554;1.388;2022-12-07T07:45:07;39.22;;;20.77;;
24233;SDS011;12365;43.554;1.388;2022-12-07T07:47:33;40.08;;;21.20;;
24233;SDS011;12365;43.554;1.388;2022-12-07T07:49:59;33.20;;;20.75;;
24233;SDS011;12365;43.554;1.388;2022-12-07T07:52:24;32.70;;;20.67;;
24233;SDS011;12365;43.554;1.388;2022-12-07T07:54:50;35.67;;;21.05;;
24233;SDS011;12365;43.554;1.388;2022-12-07T07:57:16;39.92;;;21.02;;
24233;SDS011;12365;43.554;1.388;2022-12-07T07:59:42;39.13;;;20.73;;
24233;SDS011;12365;43.554;1.388;2022-12-07T08:02:09;36.17;;;20.13;;
24233;SDS011;12365;43.554;1.388;2022-12-07T08:04:42;34.63;;;20.42;;
24233;SDS011;12365;43.554;1.388;2022-12-07T08:07:08;37.35;;;20.27;;
24233;SDS011;12365;43.554;1.388;2022-12-07T08:09:34;35.10;;;20.95;;
24233;SDS011;12365;43.554;1.388;2022-12-07T08:11:59;39.40;;;21.63;;
24233;SDS011;12365;43.554;1.388;2022-12-07T08:14:25;41.63;;;22.05;;
24233;SDS011;12365;43.554;1.388;2022-12-07T08:16:52;36.85;;;19.80;;
24233;SDS011;12365;43.554;1.388;2022-12-07T08:19:18;33.33;;;19.17;;
24233;SDS011;12365;43.554;1.388;2022-12-07T08:21:43;31.95;;;18.40;;
24233;SDS011;12365;43.554;1.388;2022-12-07T08:24:09;30.25;;;17.98;;
24233;SDS011;12365;43.554;1.388;2022-12-07T08:26:34;32.13;;;18.60;;
24233;SDS011;12365;43.554;1.388;2022-12-07T08:28:59;32.63;;;18.90;;
24233;SDS011;12365;43.554;1.388;2022-12-07T08:31:25;34.05;;;19.40;;
24233;SDS011;12365;43.554;1.388;2022-12-07T08:33:52;29.30;;;17.95;;
24233;SDS011;12365;43.554;1.388;2022-12-07T08:36:18;32.40;;;18.42;;
24233;SDS011;12365;43.554;1.388;2022-12-07T08:38:44;29.85;;;17.88;;
24233;SDS011;12365;43.554;1.388;2022-12-07T08:41:09;32.75;;;17.30;;
24233;SDS011;12365;43.554;1.388;2022-12-07T08:43:35;29.38;;;16.98;;
24233;SDS011;12365;43.554;1.388;2022-12-07T08:46:09;35.05;;;17.50;;
24233;SDS011;12365;43.554;1.388;2022-12-07T08:48:39;28.67;;;17.73;;
24233;SDS011;12365;43.554;1.388;2022-12-07T08:53:35;37.33;;;18.45;;
24233;SDS011;12365;43.554;1.388;2022-12-07T08:56:02;34.13;;;17.92;;
24233;SDS011;12365;43.554;1.388;2022-12-07T08:58:28;25.88;;;15.27;;
24233;SDS011;12365;43.554;1.388;2022-12-07T09:00:54;22.95;;;14.32;;
24233;SDS011;12365;43.554;1.388;2022-12-07T09:03:19;24.42;;;14.68;;
24233;SDS011;12365;43.554;1.388;2022-12-07T09:05:45;26.95;;;14.70;;
24233;SDS011;12365;43.554;1.388;2022-12-07T09:08:10;24.45;;;14.55;;
24233;SDS011;12365;43.554;1.388;2022-12-07T09:10:36;22.13;;;14.13;;
24233;SDS011;12365;43.554;1.388;2022-12-07T09:13:02;24.35;;;15.20;;
24233;SDS011;12365;43.554;1.388;2022-12-07T09:15:28;26.40;;;15.23;;
24233;SDS011;12365;43.554;1.388;2022-12-07T09:17:53;24.90;;;14.73;;
24233;SDS011;12365;43.554;1.388;2022-12-07T09:20:19;30.55;;;16.25;;
24233;SDS011;12365;43.554;1.388;2022-12-07T09:22:45;26.95;;;14.82;;
24233;SDS011;12365;43.554;1.388;2022-12-07T09:25:10;24.58;;;13.80;;
24233;SDS011;12365;43.554;1.388;2022-12-07T09:27:35;24.60;;;14.80;;
24233;SDS011;12365;43.554;1.388;2022-12-07T09:30:01;22.48;;;13.02;;
24233;SDS011;12365;43.554;1.388;2022-12-07T09:32:27;22.10;;;14.20;;
24233;SDS011;12365;43.554;1.388;2022-12-07T09:34:52;25.27;;;13.32;;
24233;SDS011;12365;43.554;1.388;2022-12-07T09:37:18;34.33;;;19.88;;
24233;SDS011;12365;43.554;1.388;2022-12-07T09:39:43;23.95;;;14.38;;
24233;SDS011;12365;43.554;1.388;2022-12-07T09:42:08;28.13;;;15.18;;
24233;SDS011;12365;43.554;1.388;2022-12-07T09:44:49;25.75;;;16.30;;
24233;SDS011;12365;43.554;1.388;2022-12-07T09:47:15;54.65;;;31.90;;
24233;SDS011;12365;43.554;1.388;2022-12-07T09:49:40;21.60;;;13.02;;
24233;SDS011;12365;43.554;1.388;2022-12-07T09:54:35;24.55;;;12.30;;
24233;SDS011;12365;43.554;1.388;2022-12-07T09:57:05;23.02;;;12.80;;
24233;SDS011;12365;43.554;1.388;2022-12-07T09:59:30;17.77;;;10.48;;
24233;SDS011;12365;43.554;1.388;2022-12-07T10:01:56;13.95;;;7.78;;
24233;SDS011;12365;43.554;1.388;2022-12-07T10:04:59;11.32;;;6.30;;
24233;SDS011;12365;43.554;1.388;2022-12-07T10:07:24;10.20;;;6.20;;
24233;SDS011;12365;43.554;1.388;2022-12-07T10:09:50;11.65;;;7.50;;
24233;SDS011;12365;43.554;1.388;2022-12-07T10:12:15;10.95;;;6.80;;
24233;SDS011;12365;43.554;1.388;2022-12-07T10:14:59;10.45;;;7.00;;
24233;SDS011;12365;43.554;1.388;2022-12-07T10:17:36;14.60;;;7.65;;
24233;SDS011;12365;43.554;1.388;2022-12-07T10:20:34;12.93;;;8.50;;
24233;SDS011;12365;43.554;1.388;2022-12-07T10:22:53;16.33;;;7.50;;
24233;SDS011;12365;43.554;1.388;2022-12-07T10:25:25;14.48;;;7.68;;
24233;SDS011;12365;43.554;1.388;2022-12-07T10:28:03;16.50;;;8.10;;
24233;SDS011;12365;43.554;1.388;2022-12-07T10:33:30;18.25;;;7.38;;
24233;SDS011;12365;43.554;1.388;2022-12-07T10:36:00;9.93;;;6.88;;
24233;SDS011;12365;43.554;1.388;2022-12-07T10:38:43;12.35;;;7.70;;
24233;SDS011;12365;43.554;1.388;2022-12-07T10:41:13;9.82;;;7.45;;
24233;SDS011;12365;43.554;1.388;2022-12-07T10:43:46;11.50;;;7.47;;
24233;SDS011;12365;43.554;1.388;2022-12-07T10:52:34;12.57;;;8.10;;
24233;SDS011;12365;43.554;1.388;2022-12-07T10:55:22;10.73;;;6.65;;
24233;SDS011;12365;43.554;1.388;2022-12-07T11:04:21;11.68;;;6.50;;
24233;SDS011;12365;43.554;1.388;2022-12-07T11:12:10;11.45;;;8.32;;
24233;SDS011;12365;43.554;1.388;2022-12-07T11:18:21;9.57;;;6.80;;
24233;SDS011;12365;43.554;1.388;2022-12-07T11:26:31;13.90;;;7.05;;
24233;SDS011;12365;43.554;1.388;2022-12-07T11:37:13;6.82;;;4.80;;
24233;SDS011;12365;43.554;1.388;2022-12-07T11:42:15;9.57;;;5.78;;
24233;SDS011;12365;43.554;1.388;2022-12-07T11:47:22;8.93;;;5.40;;
24233;SDS011;12365;43.554;1.388;2022-12-07T11:52:58;7.75;;;5.22;;
24233;SDS011;12365;43.554;1.388;2022-12-07T11:55:59;8.85;;;5.43;;
24233;SDS011;12365;43.554;1.388;2022-12-07T12:06:29;9.35;;;5.82;;
24233;SDS011;12365;43.554;1.388;2022-12-07T12:22:39;7.65;;;5.28;;
24233;SDS011;12365;43.554;1.388;2022-12-07T12:25:15;8.70;;;5.47;;
24233;SDS011;12365;43.554;1.388;2022-12-07T12:27:44;10.18;;;5.05;;
24233;SDS011;12365;43.554;1.388;2022-12-07T12:33:06;8.77;;;5.53;;
24233;SDS011;12365;43.554;1.388;2022-12-07T12:35:37;9.20;;;5.50;;
24233;SDS011;12365;43.554;1.388;2022-12-07T12:40:56;16.13;;;9.57;;
24233;SDS011;12365;43.554;1.388;2022-12-07T12:49:41;17.77;;;12.38;;
24233;SDS011;12365;43.554;1.388;2022-12-07T12:51:53;8.90;;;5.15;;
24233;SDS011;12365;43.554;1.388;2022-12-07T12:59:29;11.55;;;5.57;;
24233;SDS011;12365;43.554;1.388;2022-12-07T13:04:59;9.80;;;4.80;;
24233;SDS011;12365;43.554;1.388;2022-12-07T13:10:21;7.70;;;4.88;;
24233;SDS011;12365;43.554;1.388;2022-12-07T13:15:41;9.73;;;5.10;;
24233;SDS011;12365;43.554;1.388;2022-12-07T13:18:39;7.68;;;4.80;;
24233;SDS011;12365;43.554;1.388;2022-12-07T13:26:15;8.70;;;4.78;;
24233;SDS011;12365;43.554;1.388;2022-12-07T13:31:34;8.35;;;4.95;;
24233;SDS011;12365;43.554;1.388;2022-12-07T13:37:02;6.72;;;4.63;;
24233;SDS011;12365;43.554;1.388;2022-12-07T13:39:33;9.18;;;4.95;;
24233;SDS011;12365;43.554;1.388;2022-12-07T13:42:06;7.18;;;4.90;;
24233;SDS011;12365;43.554;1.388;2022-12-07T13:44:40;7.17;;;4.53;;
24233;SDS011;12365;43.554;1.388;2022-12-07T13:49:45;6.80;;;5.10;;
24233;SDS011;12365;43.554;1.388;2022-12-07T13:55:01;9.13;;;4.78;;
24233;SDS011;12365;43.554;1.388;2022-12-07T13:57:27;7.70;;;5.10;;
24233;SDS011;12365;43.554;1.388;2022-12-07T13:59:59;10.02;;;5.00;;
24233;SDS011;12365;43.554;1.388;2022-12-07T14:02:27;7.22;;;5.18;;
24233;SDS011;12365;43.554;1.388;2022-12-07T14:05:10;7.93;;;4.90;;
24233;SDS011;12365;43.554;1.388;2022-12-07T14:13:29;12.35;;;7.05;;
24233;SDS011;12365;43.554;1.388;2022-12-07T14:16:01;9.38;;;5.80;;
24233;SDS011;12365;43.554;1.388;2022-12-07T14:18:40;7.25;;;4.70;;
24233;SDS011;12365;43.554;1.388;2022-12-07T14:23:35;5.55;;;4.50;;
24233;SDS011;12365;43.554;1.388;2022-12-07T14:26:09;12.95;;;4.72;;
24233;SDS011;12365;43.554;1.388;2022-12-07T14:28:37;7.05;;;4.25;;
24233;SDS011;12365;43.554;1.388;2022-12-07T14:31:03;11.38;;;4.20;;
24233;SDS011;12365;43.554;1.388;2022-12-07T14:33:36;9.20;;;3.88;;
24233;SDS011;12365;43.554;1.388;2022-12-07T14:36:02;8.40;;;4.32;;
24233;SDS011;12365;43.554;1.388;2022-12-07T14:38:27;11.73;;;4.60;;
24233;SDS011;12365;43.554;1.388;2022-12-07T14:40:53;6.50;;;3.97;;
24233;SDS011;12365;43.554;1.388;2022-12-07T14:43:19;8.88;;;4.22;;
24233;SDS011;12365;43.554;1.388;2022-12-07T14:45:45;10.90;;;4.50;;
24233;SDS011;12365;43.554;1.388;2022-12-07T14:48:12;7.47;;;4.10;;
24233;SDS011;12365;43.554;1.388;2022-12-07T14:50:40;9.95;;;4.05;;
24233;SDS011;12365;43.554;1.388;2022-12-07T14:55:42;14.50;;;4.10;;
24233;SDS011;12365;43.554;1.388;2022-12-07T14:58:12;11.73;;;4.55;;
24233;SDS011;12365;43.554;1.388;2022-12-07T15:00:39;11.45;;;4.32;;
24233;SDS011;12365;43.554;1.388;2022-12-07T15:03:04;9.50;;;4.50;;
24233;SDS011;12365;43.554;1.388;2022-12-07T15:05:30;7.28;;;4.05;;
24233;SDS011;12365;43.554;1.388;2022-12-07T15:07:55;15.07;;;4.20;;
24233;SDS011;12365;43.554;1.388;2022-12-07T15:10:22;10.68;;;4.00;;
24233;SDS011;12365;43.554;1.388;2022-12-07T15:12:57;9.00;;;4.18;;
24233;SDS011;12365;43.554;1.388;2022-12-07T15:15:46;7.75;;;4.28;;
24233;SDS011;12365;43.554;1.388;2022-12-07T15:18:13;6.03;;;4.40;;
24233;SDS011;12365;43.554;1.388;2022-12-07T15:20:39;8.10;;;4.28;;
24233;SDS011;12365;43.554;1.388;2022-12-07T15:23:04;9.70;;;3.95;;
24233;SDS011;12365;43.554;1.388;2022-12-07T15:25:30;17.98;;;4.88;;
24233;SDS011;12365;43.554;1.388;2022-12-07T15:27:55;11.93;;;4.82;;
24233;SDS011;12365;43.554;1.388;2022-12-07T15:30:20;11.98;;;4.50;;
24233;SDS011;12365;43.554;1.388;2022-12-07T15:32:49;9.00;;;4.22;;
24233;SDS011;12365;43.554;1.388;2022-12-07T15:35:18;12.32;;;4.45;;
24233;SDS011;12365;43.554;1.388;2022-12-07T15:37:44;9.30;;;4.50;;
24233;SDS011;12365;43.554;1.388;2022-12-07T15:40:10;5.65;;;4.07;;
24233;SDS011;12365;43.554;1.388;2022-12-07T15:42:36;9.23;;;4.20;;
24233;SDS011;12365;43.554;1.388;2022-12-07T15:45:02;7.97;;;4.25;;
24233;SDS011;12365;43.554;1.388;2022-12-07T15:47:38;8.02;;;4.25;;
24233;SDS011;12365;43.554;1.388;2022-12-07T15:50:09;9.48;;;4.57;;
24233;SDS011;12365;43.554;1.388;2022-12-07T15:52:37;13.63;;;4.30;;
24233;SDS011;12365;43.554;1.388;2022-12-07T15:55:03;13.65;;;7.13;;
24233;SDS011;12365;43.554;1.388;2022-12-07T15:57:32;9.63;;;6.00;;
24233;SDS011;12365;43.554;1.388;2022-12-07T15:59:59;13.82;;;5.63;;
24233;SDS011;12365;43.554;1.388;2022-12-07T16:02:25;13.90;;;5.78;;
24233;SDS011;12365;43.554;1.388;2022-12-07T16:04:50;14.20;;;5.80;;
24233;SDS011;12365;43.554;1.388;2022-12-07T16:07:16;16.55;;;9.02;;
24233;SDS011;12365;43.554;1.388;2022-12-07T16:09:43;24.27;;;10.05;;
24233;SDS011;12365;43.554;1.388;2022-12-07T16:12:10;15.52;;;7.85;;
24233;SDS011;12365;43.554;1.388;2022-12-07T16:14:36;15.93;;;8.45;;
24233;SDS011;12365;43.554;1.388;2022-12-07T16:17:02;18.70;;;8.70;;
24233;SDS011;12365;43.554;1.388;2022-12-07T16:19:29;22.98;;;8.18;;
24233;SDS011;12365;43.554;1.388;2022-12-07T16:21:55;23.20;;;8.15;;
24233;SDS011;12365;43.554;1.388;2022-12-07T16:24:21;21.77;;;8.98;;
24233;SDS011;12365;43.554;1.388;2022-12-07T16:26:47;23.52;;;9.52;;
24233;SDS011;12365;43.554;1.388;2022-12-07T16:29:12;25.77;;;9.40;;
24233;SDS011;12365;43.554;1.388;2022-12-07T16:31:38;29.52;;;9.68;;
24233;SDS011;12365;43.554;1.388;2022-12-07T16:34:04;30.40;;;13.20;;
24233;SDS011;12365;43.554;1.388;2022-12-07T16:36:29;24.67;;;13.48;;
24233;SDS011;12365;43.554;1.388;2022-12-07T16:38:55;24.23;;;13.25;;
24233;SDS011;12365;43.554;1.388;2022-12-07T16:41:20;24.35;;;11.50;;
24233;SDS011;12365;43.554;1.388;2022-12-07T16:43:46;23.90;;;10.77;;
24233;SDS011;12365;43.554;1.388;2022-12-07T16:46:12;19.17;;;9.40;;
24233;SDS011;12365;43.554;1.388;2022-12-07T16:48:38;22.52;;;8.88;;
24233;SDS011;12365;43.554;1.388;2022-12-07T16:51:05;20.92;;;8.77;;
24233;SDS011;12365;43.554;1.388;2022-12-07T16:53:33;18.42;;;10.18;;
24233;SDS011;12365;43.554;1.388;2022-12-07T16:55:59;25.15;;;10.05;;
24233;SDS011;12365;43.554;1.388;2022-12-07T16:58:24;19.77;;;9.63;;
24233;SDS011;12365;43.554;1.388;2022-12-07T17:00:50;17.23;;;8.27;;
24233;SDS011;12365;43.554;1.388;2022-12-07T17:03:15;16.92;;;7.57;;
24233;SDS011;12365;43.554;1.388;2022-12-07T17:05:42;16.30;;;9.77;;
24233;SDS011;12365;43.554;1.388;2022-12-07T17:08:08;14.13;;;7.15;;
24233;SDS011;12365;43.554;1.388;2022-12-07T17:10:35;13.73;;;7.05;;
24233;SDS011;12365;43.554;1.388;2022-12-07T17:13:03;17.92;;;7.13;;
24233;SDS011;12365;43.554;1.388;2022-12-07T17:15:59;15.02;;;6.97;;
24233;SDS011;12365;43.554;1.388;2022-12-07T17:18:28;17.83;;;7.47;;